Lake Edgewood, Indiana
Current Conditions -  °F | °C
As of 7:15 AM on Monday 20 Oct 2014 (Local Time) from K1II Reporting Station
Overcast Overcast  
Wind Chill: 50°   Ceiling: 10000
Heat Index: 50°   Visibility: 10mi
Dew Point: 43°   Wind: 3mph
Humidity: 76%   Direction: 210°SSW
Pressure: 29.98"   Gusts: NA
Location:  39.4615°N, 86.4578°W
Report Text: K1II 201115Z AUTO 21003KT 10SM OVC100 10/06 A2998 RMK AO2
Loading
Personal Weather Stations






























Interactive Weather Map
Tropical Storm Tracking
New forecast layout! Learn more

10-Day Weather Forecast

Advertisements
Track Severe Weather on mobile